createdAt,value
2022-08-05T00:00:15.930Z,65.29
2022-08-05T00:02:51.070Z,65.89
2022-08-05T00:06:04.886Z,66.77
2022-08-05T00:08:35.038Z,67.63
2022-08-05T00:11:20.739Z,66.61
2022-08-05T00:14:12.052Z,65.48
2022-08-05T00:16:52.337Z,65.43
2022-08-05T00:19:45.588Z,65.46
2022-08-05T00:22:20.591Z,65.87
2022-08-05T00:24:55.154Z,66.55
2022-08-05T00:27:36.595Z,67.33
2022-08-05T00:30:15.404Z,66.73
2022-08-05T00:32:49.939Z,65.24
2022-08-05T00:35:32.987Z,64.96
2022-08-05T00:38:06.348Z,65.38
2022-08-05T00:40:58.273Z,66.12
2022-08-05T00:43:49.943Z,66.84
2022-08-05T00:46:36.900Z,67.52
2022-08-05T00:49:26.336Z,68.49
2022-08-05T00:52:14.221Z,67.03
2022-08-05T00:55:03.317Z,65.58
2022-08-05T00:57:58.490Z,65.44
2022-08-05T01:00:32.662Z,66.12
2022-08-05T01:03:22.182Z,66.56
2022-08-05T01:06:16.592Z,67.26
2022-08-05T01:08:50.262Z,67.90
2022-08-05T01:11:37.659Z,67.43
2022-08-05T01:14:09.230Z,66.02
2022-08-05T01:17:06.017Z,65.56
2022-08-05T01:20:02.240Z,66.06
2022-08-05T01:23:22.946Z,66.86
2022-08-05T01:25:56.052Z,67.58
2022-08-05T01:28:35.010Z,68.16
2022-08-05T01:31:44.856Z,67.74
2022-08-05T01:34:26.765Z,66.07
2022-08-05T01:37:02.345Z,65.81
2022-08-05T01:39:47.560Z,66.24
2022-08-05T01:42:19.746Z,66.79
2022-08-05T01:45:02.215Z,67.35
2022-08-05T01:47:39.254Z,68.45
2022-08-05T01:50:19.326Z,68.24
2022-08-05T01:53:06.247Z,66.99
2022-08-05T01:55:42.480Z,66.74
2022-08-05T01:58:17.749Z,66.97
2022-08-05T02:00:53.278Z,67.16
2022-08-05T02:03:39.054Z,67.50
2022-08-05T02:06:33.346Z,68.75
2022-08-05T02:09:04.373Z,67.82
2022-08-05T02:12:05.251Z,65.97
2022-08-05T02:14:34.547Z,65.65
2022-08-05T02:18:27.457Z,66.07
2022-08-05T02:20:30.408Z,66.96
2022-08-05T02:23:08.945Z,67.66
2022-08-05T02:25:49.154Z,68.67
2022-08-05T02:28:36.454Z,67.92
2022-08-05T02:31:16.753Z,66.35
2022-08-05T02:34:11.923Z,66.32
2022-08-05T02:36:51.098Z,66.72
2022-08-05T02:39:26.665Z,67.34
2022-08-05T02:42:01.359Z,67.93
2022-08-05T02:44:30.783Z,68.81
2022-08-05T02:47:14.303Z,68.60
2022-08-05T02:49:45.430Z,66.89
2022-08-05T02:52:29.887Z,66.81
2022-08-05T02:55:12.356Z,67.23
2022-08-05T02:58:10.619Z,67.57
2022-08-05T03:00:38.432Z,68.19
2022-08-05T03:03:10.138Z,69.12
2022-08-05T03:06:54.852Z,68.88
2022-08-05T03:08:31.833Z,67.02
2022-08-05T03:11:01.275Z,66.79
2022-08-05T03:14:03.053Z,67.37
2022-08-05T03:16:31.773Z,67.76
2022-08-05T03:19:00.996Z,68.29
2022-08-05T03:21:41.321Z,69.24
2022-08-05T03:24:16.534Z,68.39
2022-08-05T03:26:45.741Z,66.86
2022-08-05T03:29:18.094Z,66.59
2022-08-05T03:31:57.417Z,67.08
2022-08-05T03:34:28.249Z,67.77
2022-08-05T03:36:58.422Z,68.18
2022-08-05T03:39:31.586Z,68.75
2022-08-05T03:42:14.361Z,68.41
2022-08-05T03:44:45.807Z,66.92
2022-08-05T03:47:15.094Z,66.80
2022-08-05T03:49:51.515Z,67.25
2022-08-05T03:55:00.117Z,68.41
2022-08-05T03:56:05.498Z,69.33
2022-08-05T03:58:30.485Z,69.93
2022-08-05T04:00:58.446Z,69.22
2022-08-05T04:03:28.834Z,67.73
2022-08-05T04:06:08.645Z,67.24
2022-08-05T04:08:37.034Z,67.51
2022-08-05T04:11:08.708Z,67.90
2022-08-05T04:13:50.389Z,68.55
2022-08-05T04:16:32.830Z,69.39
2022-08-05T04:19:03.576Z,68.65
2022-08-05T04:22:09.956Z,66.89
2022-08-05T04:24:52.707Z,66.31
2022-08-05T04:27:41.801Z,66.85
2022-08-05T04:30:20.424Z,67.30
2022-08-05T04:32:53.537Z,67.74
2022-08-05T04:35:23.956Z,68.24
2022-08-05T04:38:01.696Z,67.19
2022-08-05T04:40:37.187Z,65.69
2022-08-05T04:43:16.344Z,64.81
2022-08-05T04:45:55.038Z,65.15
2022-08-05T04:48:29.181Z,65.48
2022-08-05T04:51:02.513Z,65.83
2022-08-05T04:53:40.937Z,66.48
2022-08-05T04:56:34.655Z,66.79
2022-08-05T04:59:22.372Z,64.96
2022-08-05T05:02:35.232Z,63.62
2022-08-05T05:05:02.174Z,63.57
2022-08-05T05:07:32.833Z,63.41
2022-08-05T05:10:05.541Z,63.41
2022-08-05T05:12:37.167Z,64.24
2022-08-05T05:15:10.769Z,64.28
2022-08-05T05:17:55.909Z,64.58
2022-08-05T05:20:28.385Z,63.64
2022-08-05T05:23:03.110Z,62.04
2022-08-05T05:25:40.568Z,61.97
2022-08-05T05:28:11.924Z,61.96
2022-08-05T05:30:39.659Z,61.72
2022-08-05T05:33:16.517Z,61.88
2022-08-05T05:35:47.334Z,62.46
2022-08-05T05:38:22.482Z,63.06
2022-08-05T05:40:57.681Z,63.15
2022-08-05T05:44:44.399Z,62.81
2022-08-05T05:47:21.733Z,61.66
2022-08-05T05:49:56.956Z,61.32
2022-08-05T05:52:33.228Z,61.84
2022-08-05T05:55:13.534Z,60.72
2022-08-05T05:57:52.210Z,60.51
2022-08-05T06:00:21.567Z,61.36
2022-08-05T06:03:39.645Z,60.68
2022-08-05T06:05:54.121Z,61.10
2022-08-05T06:08:32.284Z,61.51
2022-08-05T06:11:08.705Z,60.46
2022-08-05T06:13:53.730Z,58.44
2022-08-05T06:16:36.804Z,56.47
2022-08-05T06:19:07.896Z,58.06
2022-08-05T06:21:38.441Z,57.21
2022-08-05T06:24:12.011Z,56.96
2022-08-05T06:26:51.813Z,56.81
2022-08-05T06:29:43.180Z,57.93
2022-08-05T06:32:20.842Z,59.35
2022-08-05T06:34:53.438Z,58.77
2022-08-05T06:37:56.869Z,57.57
2022-08-05T06:40:18.204Z,55.13
2022-08-05T06:42:52.320Z,56.77
2022-08-05T06:45:44.672Z,57.17
2022-08-05T06:48:46.891Z,57.23
2022-08-05T06:51:02.871Z,56.01
2022-08-05T06:53:39.253Z,57.28
2022-08-05T06:56:07.406Z,56.57
2022-08-05T06:58:53.822Z,55.25
2022-08-05T07:01:21.330Z,54.99
2022-08-05T07:03:50.206Z,55.02
2022-08-05T07:06:20.686Z,54.40
2022-08-05T07:08:52.015Z,52.89
2022-08-05T07:11:25.356Z,53.52
2022-08-05T07:14:15.466Z,53.12
2022-08-05T07:17:57.033Z,54.57
2022-08-05T07:20:29.866Z,52.32
2022-08-05T07:22:32.414Z,54.73
2022-08-05T07:25:23.028Z,54.15
2022-08-05T07:27:57.770Z,52.37
2022-08-05T07:30:38.679Z,52.02
2022-08-05T07:33:35.200Z,50.75
2022-08-05T07:36:20.061Z,51.50
2022-08-05T07:38:54.666Z,50.53
2022-08-05T07:42:08.595Z,50.26
2022-08-05T07:44:14.139Z,50.47
2022-08-05T07:46:50.323Z,49.19
2022-08-05T07:49:20.935Z,49.33
2022-08-05T07:51:54.523Z,48.17
2022-08-05T07:54:31.430Z,46.94
2022-08-05T07:57:23.649Z,45.41
2022-08-05T07:59:52.563Z,47.67
2022-08-05T08:02:26.312Z,46.50
2022-08-05T08:04:54.214Z,45.99
2022-08-05T08:07:22.871Z,47.95
2022-08-05T08:09:52.505Z,46.72
2022-08-05T08:12:33.409Z,44.37
2022-08-05T08:15:10.873Z,44.86
2022-08-05T08:17:49.663Z,44.83
2022-08-05T08:21:02.838Z,44.45
2022-08-05T08:24:02.441Z,41.93
2022-08-05T08:26:26.513Z,42.92
2022-08-05T08:29:02.041Z,43.02
2022-08-05T08:31:44.639Z,41.17
2022-08-05T08:34:14.549Z,42.29
2022-08-05T08:36:49.140Z,41.93
2022-08-05T08:39:19.917Z,39.25
2022-08-05T08:41:50.668Z,39.60
2022-08-05T08:45:24.434Z,40.39
2022-08-05T08:47:47.149Z,40.17
2022-08-05T08:50:22.346Z,40.43
2022-08-05T08:52:55.861Z,41.83
2022-08-05T08:56:01.688Z,41.30
2022-08-05T08:58:15.826Z,39.86
2022-08-05T09:00:43.526Z,39.70
2022-08-05T09:03:20.223Z,39.43
2022-08-05T09:06:07.510Z,38.57
2022-08-05T09:08:37.235Z,37.01
2022-08-05T09:11:08.254Z,36.54
2022-08-05T09:14:09.610Z,38.36
2022-08-05T09:16:30.885Z,38.61
2022-08-05T09:18:59.479Z,36.12
2022-08-05T09:22:22.227Z,36.27
2022-08-05T09:24:16.470Z,35.61
2022-08-05T09:26:47.525Z,36.14
2022-08-05T09:29:19.266Z,37.00
2022-08-05T09:32:41.513Z,42.81
2022-08-05T09:34:55.275Z,40.29
2022-08-05T09:38:16.564Z,38.79
2022-08-05T09:40:40.988Z,38.59
2022-08-05T09:43:41.606Z,38.74
2022-08-05T09:46:27.804Z,36.55
2022-08-05T09:49:08.214Z,37.32
2022-08-05T09:51:44.404Z,36.98
2022-08-05T09:54:28.823Z,38.52
2022-08-05T09:57:01.382Z,39.68
2022-08-05T09:59:34.864Z,39.56
2022-08-05T10:02:06.784Z,38.31
2022-08-05T10:04:44.482Z,35.86
2022-08-05T10:07:20.310Z,33.72
2022-08-05T10:10:13.781Z,34.10
2022-08-05T10:12:50.466Z,35.21
2022-08-05T10:15:24.152Z,33.84
2022-08-05T10:18:08.049Z,35.63
2022-08-05T10:20:49.141Z,37.14
2022-08-05T10:23:50.861Z,35.83
2022-08-05T10:26:13.816Z,36.44
2022-08-05T10:28:45.083Z,37.74
2022-08-05T10:32:47.846Z,37.19
2022-08-05T10:34:13.152Z,36.82
2022-08-05T10:36:52.913Z,35.38
2022-08-05T10:39:59.137Z,34.10
2022-08-05T10:42:36.790Z,34.86
2022-08-05T10:45:09.661Z,34.36
2022-08-05T10:48:29.165Z,33.83
2022-08-05T10:51:03.434Z,33.42
2022-08-05T10:54:01.024Z,32.63
2022-08-05T10:56:30.690Z,35.91
2022-08-05T11:00:01.200Z,34.78
2022-08-05T11:02:14.412Z,33.54
2022-08-05T11:05:00.430Z,34.42
2022-08-05T11:07:32.813Z,33.44
2022-08-05T11:10:27.519Z,34.62
2022-08-05T11:12:58.804Z,33.20
2022-08-05T11:15:59.210Z,36.38
2022-08-05T11:18:32.586Z,35.36
2022-08-05T11:21:11.645Z,35.33
2022-08-05T11:24:04.886Z,36.88
2022-08-05T11:26:49.392Z,36.55
2022-08-05T11:29:37.750Z,34.98
2022-08-05T11:32:29.548Z,35.54
2022-08-05T11:35:06.057Z,35.38
2022-08-05T11:38:28.305Z,35.11
2022-08-05T11:41:35.145Z,37.70
2022-08-05T11:44:05.766Z,36.25
2022-08-05T11:46:58.377Z,35.92
2022-08-05T11:49:51.255Z,33.25
2022-08-05T11:52:29.351Z,35.62
2022-08-05T11:54:58.574Z,34.50
2022-08-05T11:58:08.085Z,35.86
2022-08-05T12:00:41.322Z,35.72
2022-08-05T12:03:29.412Z,34.27
2022-08-05T12:06:10.142Z,35.96
2022-08-05T12:09:06.764Z,34.91
2022-08-05T12:11:46.976Z,35.11
2022-08-05T12:14:25.756Z,35.26
2022-08-05T12:16:53.138Z,33.92
2022-08-05T12:20:25.769Z,35.08
2022-08-05T12:22:21.860Z,34.19
2022-08-05T12:24:58.411Z,34.32
2022-08-05T12:27:33.481Z,34.23
2022-08-05T12:30:15.559Z,35.73
2022-08-05T12:32:56.373Z,35.32
2022-08-05T12:35:24.692Z,35.19
2022-08-05T12:38:07.301Z,37.12
2022-08-05T12:40:38.534Z,35.47
2022-08-05T12:43:11.855Z,36.39
2022-08-05T12:45:56.204Z,35.75
2022-08-05T12:48:32.600Z,36.17
2022-08-05T12:51:21.629Z,36.40
2022-08-05T12:54:16.721Z,36.69
2022-08-05T12:56:53.341Z,37.20
2022-08-05T12:59:46.801Z,36.37
2022-08-05T13:02:10.028Z,35.68
2022-08-05T13:04:52.240Z,35.72
2022-08-05T13:10:37.436Z,35.90
2022-08-05T13:14:05.024Z,36.13
2022-08-05T13:16:20.770Z,35.80
2022-08-05T13:19:12.482Z,35.79
2022-08-05T13:21:48.260Z,36.77
2022-08-05T13:24:27.732Z,36.39
2022-08-05T13:27:38.416Z,35.92
2022-08-05T13:30:36.053Z,37.18
2022-08-05T13:33:02.120Z,36.76
2022-08-05T13:35:42.505Z,36.68
2022-08-05T13:38:28.051Z,37.54
2022-08-05T13:40:59.853Z,37.48
2022-08-05T13:43:45.512Z,36.61
2022-08-05T13:46:16.285Z,36.31
2022-08-05T13:49:01.039Z,36.69
2022-08-05T13:51:40.005Z,36.04
2022-08-05T13:54:12.291Z,37.94
2022-08-05T13:56:44.981Z,37.66
2022-08-05T13:59:27.101Z,37.58
2022-08-05T14:02:19.785Z,38.41
2022-08-05T14:05:19.635Z,38.08
2022-08-05T14:08:20.038Z,37.19
2022-08-05T14:11:22.565Z,36.77
2022-08-05T14:13:59.322Z,36.34
2022-08-05T14:16:29.271Z,37.52
2022-08-05T14:19:04.540Z,38.27
2022-08-05T14:22:09.403Z,37.87
2022-08-05T14:24:24.390Z,37.89
2022-08-05T14:27:15.739Z,38.19
2022-08-05T14:29:42.377Z,37.57
2022-08-05T14:32:17.099Z,38.35
2022-08-05T14:35:10.768Z,38.35
2022-08-05T14:37:48.157Z,38.91
2022-08-05T14:40:16.924Z,38.52
2022-08-05T14:42:44.540Z,37.84
2022-08-05T14:45:11.930Z,38.44
2022-08-05T14:48:03.361Z,39.00
2022-08-05T14:50:27.372Z,38.73
2022-08-05T14:52:57.656Z,39.30
2022-08-05T14:55:38.421Z,38.21
2022-08-05T14:58:11.407Z,38.55
2022-08-05T15:00:58.476Z,38.88
2022-08-05T15:03:27.829Z,39.18
2022-08-05T15:06:14.956Z,39.24
2022-08-05T15:08:59.260Z,39.57
2022-08-05T15:11:51.885Z,39.49
2022-08-05T15:14:34.470Z,39.48
2022-08-05T15:17:05.273Z,39.96
2022-08-05T15:19:49.030Z,40.14
2022-08-05T15:22:16.824Z,39.83
2022-08-05T15:24:47.367Z,40.25
2022-08-05T15:27:18.634Z,40.43
2022-08-05T15:29:47.292Z,40.57
2022-08-05T15:32:16.798Z,40.56
2022-08-05T15:34:44.094Z,40.24
2022-08-05T15:37:19.395Z,40.40
2022-08-05T15:41:03.535Z,40.79
2022-08-05T15:42:57.656Z,40.02
2022-08-05T15:45:38.268Z,40.99
2022-08-05T15:48:14.346Z,40.87
2022-08-05T15:50:43.882Z,40.91
2022-08-05T15:53:14.034Z,40.78
2022-08-05T15:56:03.010Z,40.96
2022-08-05T15:58:37.074Z,41.03
2022-08-05T16:01:16.059Z,40.57
2022-08-05T16:03:55.082Z,40.48
2022-08-05T16:06:23.661Z,40.69
2022-08-05T16:08:53.557Z,40.29
2022-08-05T16:11:42.414Z,40.15
2022-08-05T16:14:09.831Z,40.39
2022-08-05T16:16:37.519Z,40.43
2022-08-05T16:19:05.398Z,40.08
2022-08-05T16:21:58.856Z,39.81
2022-08-05T16:24:51.970Z,40.24
2022-08-05T16:27:47.363Z,40.49
2022-08-05T16:30:26.661Z,40.38
2022-08-05T16:33:02.799Z,40.76
2022-08-05T16:35:32.303Z,40.94
2022-08-05T16:38:25.218Z,40.80
2022-08-05T16:41:00.238Z,40.61
2022-08-05T16:43:32.294Z,41.33
2022-08-05T16:46:12.957Z,41.07
2022-08-05T16:48:55.659Z,40.81
2022-08-05T16:51:30.741Z,41.00
2022-08-05T16:54:17.423Z,41.81
2022-08-05T16:56:52.283Z,42.31
2022-08-05T16:59:19.835Z,42.26
2022-08-05T17:01:53.576Z,42.83
2022-08-05T17:04:27.957Z,42.74
2022-08-05T17:07:00.915Z,42.74
2022-08-05T17:09:58.327Z,43.05
2022-08-05T17:12:57.754Z,44.37
2022-08-05T17:15:49.033Z,45.09
2022-08-05T17:18:26.530Z,45.37
2022-08-05T17:20:59.464Z,46.03
2022-08-05T17:24:06.032Z,46.12
2022-08-05T17:26:51.132Z,46.93
2022-08-05T17:29:41.023Z,47.48
2022-08-05T17:32:30.569Z,47.74
2022-08-05T17:35:20.669Z,48.21
2022-08-05T17:38:00.605Z,48.67
2022-08-05T17:40:32.688Z,49.76
2022-08-05T17:43:14.466Z,50.17
2022-08-05T17:46:30.174Z,50.63
2022-08-05T17:49:23.803Z,50.96
2022-08-05T17:52:17.357Z,51.80
2022-08-05T17:55:13.791Z,52.32
2022-08-05T17:57:54.230Z,52.68
2022-08-05T18:00:21.628Z,52.74
2022-08-05T18:02:57.175Z,53.64
2022-08-05T18:05:36.235Z,53.95
2022-08-05T18:08:06.734Z,54.67
2022-08-05T18:10:42.695Z,55.27
2022-08-05T18:13:19.479Z,55.21
2022-08-05T18:15:51.782Z,55.72
2022-08-05T18:18:21.986Z,56.24
2022-08-05T18:20:55.045Z,56.47
2022-08-05T18:23:25.173Z,56.77
2022-08-05T18:26:01.151Z,57.15
2022-08-05T18:28:29.492Z,57.19
2022-08-05T18:30:58.419Z,57.53
2022-08-05T18:33:25.640Z,58.05
2022-08-05T18:36:03.482Z,58.29
2022-08-05T18:38:36.149Z,59.00
2022-08-05T18:41:59.638Z,59.43
2022-08-05T18:43:54.910Z,60.06
2022-08-05T18:46:29.212Z,58.92
2022-08-05T18:48:56.608Z,57.34
2022-08-05T18:52:04.190Z,56.58
2022-08-05T18:55:18.612Z,56.93
2022-08-05T18:57:53.323Z,57.53
2022-08-05T19:00:30.637Z,57.92
2022-08-05T19:03:05.179Z,58.51
2022-08-05T19:06:11.728Z,59.31
2022-08-05T19:08:56.879Z,59.89
2022-08-05T19:11:28.369Z,59.94
2022-08-05T19:14:15.274Z,60.32
2022-08-05T19:16:51.946Z,60.52
2022-08-05T19:19:21.027Z,61.04
2022-08-05T19:21:48.514Z,60.59
2022-08-05T19:24:34.806Z,59.22
2022-08-05T19:27:04.158Z,58.66
2022-08-05T19:29:36.191Z,58.90
2022-08-05T19:32:11.574Z,59.20
2022-08-05T19:34:41.953Z,59.76
2022-08-05T19:37:21.732Z,60.49
2022-08-05T19:40:08.179Z,61.06
2022-08-05T19:42:38.878Z,61.39
2022-08-05T19:45:18.066Z,61.62
2022-08-05T19:47:49.117Z,61.74
2022-08-05T19:50:23.044Z,62.40
2022-08-05T19:53:09.307Z,61.68
2022-08-05T19:56:14.354Z,60.11
2022-08-05T19:58:29.619Z,59.39
2022-08-05T20:01:13.490Z,59.66
2022-08-05T20:03:51.999Z,60.50
2022-08-05T20:06:24.153Z,61.00
2022-08-05T20:09:13.624Z,61.68
2022-08-05T20:11:41.737Z,62.33
2022-08-05T20:14:27.102Z,62.19
2022-08-05T20:17:09.988Z,63.10
2022-08-05T20:19:57.662Z,62.27
2022-08-05T20:22:41.908Z,60.92
2022-08-05T20:25:17.382Z,60.58
2022-08-05T20:27:53.020Z,60.99
2022-08-05T20:30:23.188Z,61.36
2022-08-05T20:32:54.166Z,62.00
2022-08-05T20:35:45.581Z,62.37
2022-08-05T20:39:07.167Z,62.99
2022-08-05T20:41:51.412Z,63.90
2022-08-05T20:44:30.385Z,62.94
2022-08-05T20:47:04.588Z,61.58
2022-08-05T20:49:40.167Z,61.43
2022-08-05T20:52:13.556Z,61.67
2022-08-05T20:55:15.760Z,62.01
2022-08-05T20:58:13.580Z,62.83
2022-08-05T21:00:56.867Z,63.31
2022-08-05T21:03:53.249Z,63.97
2022-08-05T21:06:29.698Z,64.59
2022-08-05T21:09:07.443Z,63.81
2022-08-05T21:12:07.685Z,62.06
2022-08-05T21:14:44.012Z,61.69
2022-08-05T21:17:18.849Z,62.05
2022-08-05T21:19:52.425Z,62.75
2022-08-05T21:22:27.485Z,63.47
2022-08-05T21:24:58.319Z,63.96
2022-08-05T21:27:52.680Z,64.54
2022-08-05T21:30:29.089Z,64.04
2022-08-05T21:33:07.257Z,62.63
2022-08-05T21:35:56.085Z,62.40
2022-08-05T21:38:38.669Z,63.08
2022-08-05T21:41:16.582Z,63.69
2022-08-05T21:44:09.104Z,64.38
2022-08-05T21:46:58.310Z,64.94
2022-08-05T21:50:00.199Z,65.54
2022-08-05T21:52:36.736Z,64.74
2022-08-05T21:55:15.132Z,63.39
2022-08-05T21:57:49.986Z,63.06
2022-08-05T22:00:51.374Z,63.55
2022-08-05T22:04:18.053Z,63.94
2022-08-05T22:07:08.551Z,64.60
2022-08-05T22:09:45.446Z,64.99
2022-08-05T22:12:29.664Z,65.64
2022-08-05T22:15:03.272Z,64.83
2022-08-05T22:17:48.683Z,63.37
2022-08-05T22:20:47.235Z,62.89
2022-08-05T22:24:02.128Z,63.32
2022-08-05T22:27:11.013Z,64.20
2022-08-05T22:30:03.295Z,64.99
2022-08-05T22:32:41.288Z,65.87
2022-08-05T22:35:19.092Z,65.22
2022-08-05T22:38:05.060Z,64.00
2022-08-05T22:40:49.463Z,64.13
2022-08-05T22:43:56.016Z,64.29
2022-08-05T22:46:30.512Z,64.61
2022-08-05T22:49:46.261Z,64.98
2022-08-05T22:52:39.506Z,65.82
2022-08-05T22:55:56.551Z,66.51
2022-08-05T22:58:40.091Z,65.02
2022-08-05T23:01:19.327Z,63.72
2022-08-05T23:04:30.752Z,63.62
2022-08-05T23:07:56.076Z,64.23
2022-08-05T23:10:42.945Z,64.94
2022-08-05T23:13:16.095Z,65.47
2022-08-05T23:15:50.276Z,66.19
2022-08-05T23:18:25.804Z,65.74
2022-08-05T23:21:01.950Z,64.20
2022-08-05T23:23:38.288Z,63.80
2022-08-05T23:26:16.311Z,64.40
2022-08-05T23:28:45.715Z,65.14
2022-08-05T23:31:21.065Z,65.62
2022-08-05T23:34:06.759Z,66.36
2022-08-05T23:36:41.427Z,67.17
2022-08-05T23:39:32.039Z,66.43
2022-08-05T23:42:14.338Z,65.01
2022-08-05T23:44:47.859Z,64.76
2022-08-05T23:47:22.570Z,64.89
2022-08-05T23:49:58.227Z,65.11
2022-08-05T23:52:35.933Z,65.67
2022-08-05T23:55:12.367Z,66.10
2022-08-05T23:57:51.232Z,66.89
